Time;durP1;ratioP1;P1;durP2;ratioP2;P2;SDS_P1;SDS_P2;PMS_P1;PMS_P2;Temp;Humidity;BMP_temperature;BMP_pressure;BME280_temperature;BME280_humidity;BME280_pressure;Samples;Min_cycle;Max_cycle;Signal;HPM_P1;HPM_P2
2022/11/12 00:01:36;;;;;;;9.20;3.50;;;;;;;;;;106746;1308;22876;-79
2022/11/12 00:04:23;;;;;;;6.90;2.40;;;;;;;;;;106774;1310;22068;-79
2022/11/12 00:07:09;;;;;;;8.60;2.60;;;;;;;;;;106761;1310;22048;-79
2022/11/12 00:09:55;;;;;;;5.70;1.90;;;;;;;;;;106635;1310;22059;-79
2022/11/12 00:12:41;;;;;;;8.50;2.50;;;;;;;;;;106624;1309;22627;-79
2022/11/12 00:15:28;;;;;;;7.10;2.20;;;;;;;;;;106635;1310;22082;-79
2022/11/12 00:18:15;;;;;;;6.40;2.00;;;;;;;;;;106688;1309;23129;-79
2022/11/12 00:21:01;;;;;;;7.10;2.00;;;;;;;;;;106635;1310;21970;-79
2022/11/12 00:23:49;;;;;;;8.30;2.10;;;;;;;;;;106694;1309;21962;-79
2022/11/12 00:26:36;;;;;;;6.70;1.90;;;;;;;;;;106640;1309;22093;-79
2022/11/12 00:29:23;;;;;;;6.10;1.80;;;;;;;;;;106686;1309;22059;-79
2022/11/12 00:32:09;;;;;;;7.00;2.00;;;;;;;;;;106698;1309;22071;-79
2022/11/12 00:34:56;;;;;;;7.60;2.30;;;;;;;;;;106591;1309;22119;-79
2022/11/12 00:37:43;;;;;;;8.00;2.20;;;;;;;;;;106599;1309;22072;-79
2022/11/12 00:40:29;;;;;;;6.70;2.20;;;;;;;;;;106614;1309;22037;-79
2022/11/12 00:43:17;;;;;;;7.90;2.20;;;;;;;;;;106715;1309;22693;-79
2022/11/12 00:46:04;;;;;;;6.60;2.00;;;;;;;;;;106622;1309;21968;-79
2022/11/12 00:48:51;;;;;;;6.50;1.70;;;;;;;;;;106619;1294;21969;-79
2022/11/12 00:51:37;;;;;;;7.10;2.00;;;;;;;;;;106619;1310;21937;-79
2022/11/12 00:54:24;;;;;;;7.60;1.90;;;;;;;;;;106649;1310;21952;-79
2022/11/12 00:57:11;;;;;;;6.50;1.80;;;;;;;;;;106662;1310;22097;-79
2022/11/12 00:59:58;;;;;;;9.20;1.70;;;;;;;;;;106709;1309;22803;-79
2022/11/12 01:02:45;;;;;;;8.30;1.90;;;;;;;;;;106611;1309;22650;-79
2022/11/12 01:05:31;;;;;;;5.20;1.60;;;;;;;;;;106891;1284;22075;-79
2022/11/12 01:08:18;;;;;;;6.00;1.60;;;;;;;;;;106606;1309;22058;-79
2022/11/12 01:11:05;;;;;;;6.40;2.00;;;;;;;;;;106639;1310;22054;-79
2022/11/12 01:24:05;;;;;;;17.00;6.80;;;;;;;;;;100428;1336;545368;-80
2022/11/12 01:26:51;;;;;;;15.50;6.10;;;;;;;;;;102643;1317;22473;-85
2022/11/12 01:29:36;;;;;;;14.10;6.40;;;;;;;;;;102572;1317;22484;-81
2022/11/12 01:32:21;;;;;;;15.60;7.00;;;;;;;;;;102725;1316;25350;-83
2022/11/12 01:35:07;;;;;;;17.00;6.90;;;;;;;;;;102329;1319;22536;-79
2022/11/12 01:37:52;;;;;;;14.60;6.50;;;;;;;;;;101707;1316;1302367;-82
2022/11/12 01:40:38;;;;;;;15.90;6.60;;;;;;;;;;102647;1316;24007;-82
2022/11/12 01:43:23;;;;;;;18.40;6.70;;;;;;;;;;102764;1316;22478;-79
2022/11/12 01:46:16;;;;;;;15.20;6.70;;;;;;;;;;102861;1314;22604;-79
2022/11/12 01:49:04;;;;;;;14.80;6.40;;;;;;;;;;102852;1314;22483;-81
2022/11/12 01:51:50;;;;;;;13.10;5.70;;;;;;;;;;103015;1314;24074;-81
2022/11/12 01:54:36;;;;;;;14.60;7.10;;;;;;;;;;102685;1316;22546;-86
2022/11/12 01:57:36;;;;;;;14.90;6.70;;;;;;;;;;102844;1315;22513;-82
2022/11/12 02:00:21;;;;;;;16.40;6.50;;;;;;;;;;102832;1316;22464;-81
2022/11/12 02:03:10;;;;;;;17.20;7.00;;;;;;;;;;102628;1315;22585;-85
2022/11/12 02:05:58;;;;;;;16.70;7.20;;;;;;;;;;102712;1313;25309;-82
2022/11/12 02:08:44;;;;;;;17.60;7.70;;;;;;;;;;102906;1314;22467;-85
2022/11/12 02:11:29;;;;;;;16.20;7.30;;;;;;;;;;102799;1315;22460;-79
2022/11/12 02:14:14;;;;;;;16.50;6.30;;;;;;;;;;102593;1294;22501;-81
2022/11/12 02:17:00;;;;;;;18.20;6.90;;;;;;;;;;102719;1316;24331;-79
2022/11/12 02:19:46;;;;;;;15.80;6.20;;;;;;;;;;102506;1316;22723;-82
2022/11/12 02:22:31;;;;;;;18.30;6.40;;;;;;;;;;102598;1317;22469;-85
2022/11/12 02:25:18;;;;;;;16.40;6.10;;;;;;;;;;103231;1310;23511;-81
2022/11/12 02:28:05;;;;;;;15.80;6.40;;;;;;;;;;103306;1309;22474;-85
2022/11/12 02:30:50;;;;;;;18.10;7.00;;;;;;;;;;103334;1310;24301;-83
2022/11/12 02:33:36;;;;;;;15.50;6.00;;;;;;;;;;103428;1310;24240;-82
2022/11/12 02:36:22;;;;;;;15.40;6.00;;;;;;;;;;103231;1309;22595;-83
2022/11/12 02:39:07;;;;;;;15.80;6.30;;;;;;;;;;103234;1310;22795;-80
2022/11/12 02:41:53;;;;;;;14.40;5.50;;;;;;;;;;103209;1310;22615;-82
2022/11/12 02:44:38;;;;;;;12.40;4.50;;;;;;;;;;103271;1310;23772;-86
2022/11/12 02:47:24;;;;;;;11.20;3.50;;;;;;;;;;103276;1305;24407;-84
2022/11/12 02:50:10;;;;;;;10.50;2.90;;;;;;;;;;103397;1310;23044;-81
2022/11/12 02:52:55;;;;;;;8.70;2.30;;;;;;;;;;103304;1309;22539;-80
2022/11/12 02:55:41;;;;;;;6.60;1.90;;;;;;;;;;103639;1299;22883;-82
2022/11/12 02:58:27;;;;;;;6.60;2.00;;;;;;;;;;103477;1306;24260;-85
2022/11/12 03:01:12;;;;;;;8.20;1.80;;;;;;;;;;103673;1299;25338;-78
2022/11/12 03:03:59;;;;;;;8.20;2.80;;;;;;;;;;103658;1303;24237;-85
2022/11/12 03:06:44;;;;;;;12.70;4.90;;;;;;;;;;103771;1303;22527;-83
2022/11/12 03:09:30;;;;;;;14.50;5.70;;;;;;;;;;103840;1304;22461;-82
2022/11/12 03:12:15;;;;;;;14.50;6.20;;;;;;;;;;103768;1303;22472;-85
2022/11/12 03:15:00;;;;;;;15.80;6.00;;;;;;;;;;103732;1304;23736;-79
2022/11/12 03:17:45;;;;;;;15.40;5.80;;;;;;;;;;103582;1304;22489;-79
2022/11/12 03:20:33;;;;;;;14.20;5.50;;;;;;;;;;103752;1303;22709;-82
2022/11/12 03:23:18;;;;;;;13.80;5.50;;;;;;;;;;103687;1304;24377;-80
2022/11/12 03:26:04;;;;;;;14.90;5.70;;;;;;;;;;103642;1304;25323;-80
2022/11/12 03:28:52;;;;;;;13.50;5.80;;;;;;;;;;103739;1304;21723;-80
2022/11/12 03:31:37;;;;;;;15.40;5.60;;;;;;;;;;103858;1304;22653;-80
2022/11/12 03:34:23;;;;;;;13.70;4.90;;;;;;;;;;103812;1304;24279;-79
2022/11/12 03:37:09;;;;;;;9.70;3.50;;;;;;;;;;103803;1304;22521;-82
2022/11/12 03:39:54;;;;;;;12.20;5.20;;;;;;;;;;103710;1303;22612;-82
2022/11/12 03:42:46;;;;;;;14.30;5.70;;;;;;;;;;103549;1303;24281;-79
2022/11/12 03:45:31;;;;;;;17.90;6.30;;;;;;;;;;103666;1299;25391;-84
2022/11/12 03:48:17;;;;;;;20.10;6.70;;;;;;;;;;103711;1304;22483;-85
2022/11/12 03:51:02;;;;;;;16.00;6.30;;;;;;;;;;103812;1304;24251;-82
2022/11/12 03:53:47;;;;;;;24.30;7.70;;;;;;;;;;103742;1303;23621;-85
2022/11/12 03:56:33;;;;;;;16.20;6.10;;;;;;;;;;103764;1304;21884;-83
2022/11/12 03:59:18;;;;;;;20.80;6.80;;;;;;;;;;103612;1304;22467;-82
2022/11/12 04:02:04;;;;;;;17.30;6.00;;;;;;;;;;103778;1303;24243;-84
2022/11/12 04:11:08;;;;;;;13.70;5.70;;;;;;;;;;103805;1304;25348;-82
2022/11/12 04:14:11;;;;;;;13.80;5.10;;;;;;;;;;103787;1304;22465;-86
2022/11/12 04:23:06;;;;;;;15.10;5.70;;;;;;;;;;103658;1299;24417;-85
2022/11/12 04:32:00;;;;;;;13.40;5.50;;;;;;;;;;103791;1298;22501;-79
2022/11/12 04:34:45;;;;;;;13.40;5.30;;;;;;;;;;103744;1304;24232;-80
2022/11/12 04:37:43;;;;;;;17.60;5.90;;;;;;;;;;103792;1304;22719;-80
2022/11/12 04:46:37;;;;;;;15.50;6.00;;;;;;;;;;103729;1303;22530;-83
2022/11/12 04:49:22;;;;;;;13.90;6.00;;;;;;;;;;103748;1304;22508;-83
2022/11/12 04:52:08;;;;;;;13.90;6.30;;;;;;;;;;103732;1304;25304;-79
2022/11/12 04:54:53;;;;;;;13.40;6.10;;;;;;;;;;103803;1304;22434;-83
2022/11/12 04:57:39;;;;;;;14.40;5.60;;;;;;;;;;103705;1301;22550;-81
2022/11/12 05:00:24;;;;;;;11.10;5.00;;;;;;;;;;103620;1292;24339;-83
2022/11/12 05:03:10;;;;;;;11.70;4.80;;;;;;;;;;103811;1299;25469;-80
2022/11/12 05:06:02;;;;;;;11.90;4.90;;;;;;;;;;103776;1303;24015;-82
2022/11/12 05:08:47;;;;;;;13.60;5.20;;;;;;;;;;103783;1303;22579;-85
2022/11/12 05:11:32;;;;;;;11.80;4.60;;;;;;;;;;103781;1301;22485;-81
2022/11/12 05:14:18;;;;;;;12.10;4.40;;;;;;;;;;103783;1304;23713;-81
2022/11/12 05:17:03;;;;;;;10.60;4.30;;;;;;;;;;103770;1304;25169;-84
2022/11/12 05:19:49;;;;;;;12.90;5.10;;;;;;;;;;103653;1303;22703;-83
2022/11/12 05:22:34;;;;;;;16.70;5.60;;;;;;;;;;103557;1304;22430;-79
2022/11/12 05:25:20;;;;;;;14.80;5.70;;;;;;;;;;103732;1304;25411;-80
2022/11/12 05:28:05;;;;;;;15.80;6.10;;;;;;;;;;103557;1298;24241;-79
2022/11/12 05:30:50;;;;;;;14.20;5.60;;;;;;;;;;103761;1304;24483;-82
2022/11/12 05:33:36;;;;;;;11.60;4.90;;;;;;;;;;103818;1288;23178;-83
2022/11/12 05:36:21;;;;;;;15.80;5.20;;;;;;;;;;103763;1304;23837;-83
2022/11/12 05:39:07;;;;;;;13.30;5.40;;;;;;;;;;103687;1304;25512;-84
2022/11/12 05:41:53;;;;;;;13.90;4.70;;;;;;;;;;103761;1303;23845;-84
2022/11/12 05:44:38;;;;;;;15.00;5.50;;;;;;;;;;103625;1303;24288;-82
2022/11/12 05:47:23;;;;;;;11.70;3.80;;;;;;;;;;103789;1303;22456;-83
2022/11/12 05:50:08;;;;;;;11.70;4.00;;;;;;;;;;103610;1297;22412;-82
2022/11/12 05:52:54;;;;;;;7.10;1.70;;;;;;;;;;103799;1304;22475;-84
2022/11/12 05:55:39;;;;;;;6.20;1.20;;;;;;;;;;103762;1304;22445;-82
2022/11/12 05:58:24;;;;;;;5.30;1.40;;;;;;;;;;103798;1304;22458;-83
2022/11/12 06:01:10;;;;;;;5.30;1.40;;;;;;;;;;103763;1303;25529;-83
2022/11/12 06:03:55;;;;;;;5.20;1.40;;;;;;;;;;103539;1298;22725;-84
2022/11/12 06:06:41;;;;;;;5.20;1.40;;;;;;;;;;103414;1303;25332;-81
2022/11/12 06:09:26;;;;;;;7.20;1.30;;;;;;;;;;103587;1303;25267;-83
2022/11/12 06:12:11;;;;;;;5.30;1.30;;;;;;;;;;103775;1303;22705;-83
2022/11/12 06:14:57;;;;;;;7.90;2.00;;;;;;;;;;103874;1304;26471;-85
2022/11/12 06:17:43;;;;;;;14.30;3.50;;;;;;;;;;103776;1304;22450;-83
2022/11/12 06:20:28;;;;;;;17.70;6.70;;;;;;;;;;103785;1295;23621;-79
2022/11/12 06:23:14;;;;;;;17.50;7.60;;;;;;;;;;103805;1291;22929;-80
2022/11/12 06:25:59;;;;;;;16.80;7.30;;;;;;;;;;103651;1303;22470;-80
2022/11/12 06:28:45;;;;;;;14.90;6.50;;;;;;;;;;103598;1303;24189;-83
2022/11/12 06:31:30;;;;;;;20.20;7.00;;;;;;;;;;103802;1303;25460;-84
2022/11/12 06:34:16;;;;;;;17.00;7.30;;;;;;;;;;103785;1304;22471;-86
2022/11/12 06:37:01;;;;;;;17.40;7.40;;;;;;;;;;103827;1304;25935;-83
2022/11/12 06:39:47;;;;;;;20.10;8.50;;;;;;;;;;103766;1289;25189;-81
2022/11/12 06:42:32;;;;;;;17.30;8.10;;;;;;;;;;103553;1301;24320;-83
2022/11/12 06:45:18;;;;;;;19.70;8.10;;;;;;;;;;103633;1304;24244;-81
2022/11/12 06:48:03;;;;;;;19.20;7.90;;;;;;;;;;103787;1298;22706;-80
2022/11/12 06:50:49;;;;;;;18.80;8.50;;;;;;;;;;103613;1304;22566;-81
2022/11/12 06:53:34;;;;;;;18.00;8.40;;;;;;;;;;103828;1282;22513;-82
2022/11/12 06:56:19;;;;;;;19.50;8.40;;;;;;;;;;103809;1304;23861;-79
2022/11/12 06:59:05;;;;;;;19.30;8.50;;;;;;;;;;103770;1295;24289;-84
2022/11/12 07:01:51;;;;;;;21.40;9.60;;;;;;;;;;103768;1303;24246;-82
2022/11/12 07:04:36;;;;;;;19.70;9.30;;;;;;;;;;103739;1303;22465;-80
2022/11/12 07:07:22;;;;;;;21.00;9.00;;;;;;;;;;103773;1303;24265;-84
2022/11/12 07:10:07;;;;;;;20.10;9.00;;;;;;;;;;103791;1307;22461;-84
2022/11/12 07:12:53;;;;;;;19.20;9.10;;;;;;;;;;103745;1304;22657;-81
2022/11/12 07:15:38;;;;;;;19.50;8.90;;;;;;;;;;103782;1304;25218;-82
2022/11/12 07:18:25;;;;;;;22.30;9.50;;;;;;;;;;103753;1304;22457;-84
2022/11/12 07:21:14;;;;;;;37.00;14.50;;;;;;;;;;103725;1304;22503;-85
2022/11/12 07:24:00;;;;;;;26.20;11.80;;;;;;;;;;103754;1306;25374;-80
2022/11/12 07:26:45;;;;;;;22.60;10.50;;;;;;;;;;103710;1305;22466;-85
2022/11/12 07:29:30;;;;;;;22.90;10.20;;;;;;;;;;103712;1307;22727;-82
2022/11/12 07:32:15;;;;;;;26.30;10.70;;;;;;;;;;103757;1304;22673;-81
2022/11/12 07:35:00;;;;;;;25.00;10.50;;;;;;;;;;103732;1304;22543;-80
2022/11/12 07:37:46;;;;;;;21.60;9.40;;;;;;;;;;103769;1304;22458;-83
2022/11/12 07:40:31;;;;;;;22.00;10.00;;;;;;;;;;103777;1298;22476;-82
2022/11/12 07:43:17;;;;;;;22.30;9.00;;;;;;;;;;103694;1282;25322;-83
2022/11/12 07:46:04;;;;;;;19.10;9.40;;;;;;;;;;103673;1304;22460;-78
2022/11/12 07:48:49;;;;;;;18.90;8.60;;;;;;;;;;103661;1307;25301;-79
2022/11/12 07:51:35;;;;;;;21.40;9.40;;;;;;;;;;103674;1300;22487;-84
2022/11/12 07:54:20;;;;;;;17.90;8.30;;;;;;;;;;103761;1303;24228;-82
2022/11/12 07:57:06;;;;;;;17.70;8.30;;;;;;;;;;103740;1304;24330;-84
2022/11/12 07:59:51;;;;;;;19.40;8.90;;;;;;;;;;103795;1291;22527;-80
2022/11/12 08:02:36;;;;;;;28.00;9.80;;;;;;;;;;103789;1299;24145;-85
2022/11/12 08:05:22;;;;;;;23.60;10.90;;;;;;;;;;103522;1305;25332;-83
2022/11/12 08:08:08;;;;;;;26.80;12.40;;;;;;;;;;103429;1304;24468;-84
2022/11/12 08:10:57;;;;;;;26.80;11.40;;;;;;;;;;103569;1305;25207;-83
2022/11/12 08:13:42;;;;;;;32.90;12.00;;;;;;;;;;103737;1304;22473;-80
2022/11/12 08:16:28;;;;;;;26.20;12.30;;;;;;;;;;103781;1303;22931;-84
2022/11/12 08:19:14;;;;;;;22.60;11.40;;;;;;;;;;103554;1304;22467;-79
2022/11/12 08:22:00;;;;;;;17.80;8.30;;;;;;;;;;103758;1304;23770;-79
2022/11/12 08:24:45;;;;;;;17.20;6.40;;;;;;;;;;103605;1304;22467;-82
2022/11/12 08:27:31;;;;;;;12.80;5.20;;;;;;;;;;103531;1304;24446;-82
2022/11/12 08:30:17;;;;;;;15.80;6.20;;;;;;;;;;103503;1304;22471;-85
2022/11/12 08:33:05;;;;;;;15.10;5.30;;;;;;;;;;103537;1300;24449;-85
2022/11/12 08:35:51;;;;;;;14.10;5.30;;;;;;;;;;103751;1298;21710;-80
2022/11/12 08:38:38;;;;;;;15.10;5.30;;;;;;;;;;103747;1298;23065;-84
2022/11/12 08:41:24;;;;;;;16.80;5.10;;;;;;;;;;103692;1304;22470;-78
2022/11/12 08:44:09;;;;;;;16.20;5.50;;;;;;;;;;103488;1282;24436;-80
2022/11/12 08:46:55;;;;;;;18.50;6.30;;;;;;;;;;106992;1304;22327;-77
2022/11/12 08:49:41;;;;;;;16.00;6.10;;;;;;;;;;107021;1282;22168;-79
2022/11/12 08:52:26;;;;;;;14.40;6.40;;;;;;;;;;106947;1304;22784;-78
2022/11/12 08:55:11;;;;;;;15.80;6.30;;;;;;;;;;107084;1304;22273;-79
2022/11/12 08:58:00;;;;;;;16.30;6.70;;;;;;;;;;107085;1304;22101;-78
2022/11/12 09:00:46;;;;;;;18.90;6.70;;;;;;;;;;107316;1273;22094;-79
2022/11/12 09:03:31;;;;;;;19.30;6.30;;;;;;;;;;106960;1304;22284;-79
2022/11/12 09:06:16;;;;;;;18.40;6.10;;;;;;;;;;107278;1292;22260;-78
2022/11/12 09:09:02;;;;;;;18.80;6.60;;;;;;;;;;106938;1306;22740;-78
2022/11/12 09:11:47;;;;;;;20.20;6.50;;;;;;;;;;106917;1305;22078;-78
2022/11/12 09:14:32;;;;;;;16.90;6.20;;;;;;;;;;106972;1304;22694;-78
2022/11/12 09:17:18;;;;;;;15.00;6.20;;;;;;;;;;107034;1304;22088;-78
2022/11/12 09:20:03;;;;;;;17.80;6.40;;;;;;;;;;107049;1304;22072;-78
2022/11/12 09:22:50;;;;;;;20.30;7.30;;;;;;;;;;107036;1299;21941;-79
2022/11/12 09:25:35;;;;;;;10.90;4.50;;;;;;;;;;106952;1303;21960;-79
2022/11/12 09:28:21;;;;;;;11.50;3.30;;;;;;;;;;106961;1306;22083;-79
2022/11/12 09:31:07;;;;;;;13.90;4.60;;;;;;;;;;107270;1282;22751;-79
2022/11/12 09:33:52;;;;;;;10.90;3.60;;;;;;;;;;106926;1304;22163;-79
2022/11/12 09:36:38;;;;;;;9.50;3.00;;;;;;;;;;107032;1304;22339;-79
2022/11/12 09:39:23;;;;;;;12.40;3.60;;;;;;;;;;107106;1303;22045;-79
2022/11/12 09:42:11;;;;;;;17.70;4.50;;;;;;;;;;107315;1296;22029;-79
2022/11/12 09:44:59;;;;;;;10.80;2.90;;;;;;;;;;107143;1297;22087;-79
2022/11/12 09:48:01;;;;;;;7.90;2.60;;;;;;;;;;107027;1307;22078;-79
2022/11/12 09:50:55;;;;;;;7.40;1.90;;;;;;;;;;106916;1307;22807;-80
2022/11/12 09:53:49;;;;;;;8.50;2.80;;;;;;;;;;106976;1307;22780;-79
2022/11/12 09:57:02;;;;;;;6.60;1.80;;;;;;;;;;107122;1304;22060;-78
2022/11/12 09:59:47;;;;;;;7.30;2.30;;;;;;;;;;107339;1292;22093;-80
2022/11/12 10:02:36;;;;;;;19.50;8.00;;;;;;;;;;107202;1296;22022;-79
2022/11/12 10:05:32;;;;;;;18.90;8.90;;;;;;;;;;107050;1297;22809;-79
2022/11/12 10:08:17;;;;;;;24.20;10.60;;;;;;;;;;106947;1301;22090;-79
2022/11/12 10:11:08;;;;;;;11.70;4.80;;;;;;;;;;107036;1306;22092;-80
2022/11/12 10:14:18;;;;;;;10.90;3.30;;;;;;;;;;106992;1304;22083;-79
2022/11/12 10:17:22;;;;;;;7.30;2.20;;;;;;;;;;106986;1306;22085;-80
2022/11/12 10:20:07;;;;;;;7.90;2.20;;;;;;;;;;106969;1307;22062;-80
2022/11/12 10:23:01;;;;;;;6.40;1.90;;;;;;;;;;106996;1305;22089;-79
2022/11/12 10:25:49;;;;;;;6.20;1.60;;;;;;;;;;106924;1306;22040;-80
2022/11/12 10:28:40;;;;;;;8.70;2.80;;;;;;;;;;106890;1306;22817;-80
2022/11/12 10:31:25;;;;;;;10.90;3.50;;;;;;;;;;107218;1287;22155;-80
2022/11/12 10:34:14;;;;;;;7.80;2.60;;;;;;;;;;106881;1306;22124;-79
2022/11/12 10:37:01;;;;;;;9.50;2.80;;;;;;;;;;106944;1285;22061;-79
2022/11/12 10:39:49;;;;;;;9.30;2.60;;;;;;;;;;107172;1290;22079;-80
2022/11/12 10:42:53;;;;;;;7.80;2.80;;;;;;;;;;106936;1306;22767;-79
2022/11/12 10:45:39;;;;;;;9.80;2.80;;;;;;;;;;106954;1306;22101;-81
2022/11/12 10:48:27;;;;;;;11.90;2.60;;;;;;;;;;106794;1306;22081;-81
2022/11/12 10:51:22;;;;;;;9.50;2.70;;;;;;;;;;106940;1306;22082;-81
2022/11/12 10:54:26;;;;;;;7.90;2.60;;;;;;;;;;106915;1306;22233;-81
2022/11/12 10:57:17;;;;;;;7.30;2.30;;;;;;;;;;106922;1292;22071;-81
2022/11/12 11:00:06;;;;;;;6.30;1.90;;;;;;;;;;107005;1307;22079;-81
2022/11/12 11:02:55;;;;;;;8.20;2.30;;;;;;;;;;106890;1307;22848;-81
2022/11/12 11:05:55;;;;;;;8.90;2.40;;;;;;;;;;106991;1298;22750;-80
2022/11/12 11:08:42;;;;;;;11.70;3.10;;;;;;;;;;106890;1306;22081;-79
2022/11/12 11:11:28;;;;;;;11.60;4.00;;;;;;;;;;106881;1306;22041;-79
2022/11/12 11:14:27;;;;;;;12.10;4.40;;;;;;;;;;106873;1306;22229;-80
2022/11/12 11:17:16;;;;;;;11.90;4.30;;;;;;;;;;106906;1306;22100;-79
2022/11/12 11:20:02;;;;;;;10.60;3.30;;;;;;;;;;107245;1291;21996;-79
2022/11/12 11:22:55;;;;;;;8.00;2.80;;;;;;;;;;106912;1307;21969;-80
2022/11/12 11:25:41;;;;;;;6.50;2.40;;;;;;;;;;106939;1298;22034;-79
2022/11/12 11:28:42;;;;;;;7.90;2.60;;;;;;;;;;106876;1306;22115;-79
2022/11/12 11:31:39;;;;;;;8.10;2.50;;;;;;;;;;106940;1306;22708;-79
2022/11/12 11:34:33;;;;;;;7.70;2.70;;;;;;;;;;106792;1306;22091;-79
2022/11/12 11:37:24;;;;;;;8.60;2.90;;;;;;;;;;106906;1306;22069;-79
2022/11/12 11:40:15;;;;;;;6.30;2.60;;;;;;;;;;106925;1307;22022;-79
2022/11/12 11:43:12;;;;;;;8.50;2.60;;;;;;;;;;106943;1291;22082;-80
2022/11/12 11:46:00;;;;;;;9.00;2.80;;;;;;;;;;106935;1306;22802;-79
2022/11/12 11:49:06;;;;;;;8.30;3.10;;;;;;;;;;107161;1299;21955;-80
2022/11/12 11:51:54;;;;;;;7.20;2.50;;;;;;;;;;106934;1306;22066;-80
2022/11/12 11:55:03;;;;;;;25.60;13.20;;;;;;;;;;106937;1306;22087;-80
2022/11/12 11:58:04;;;;;;;45.60;23.80;;;;;;;;;;106896;1306;22137;-80
2022/11/12 12:01:13;;;;;;;15.60;7.10;;;;;;;;;;106938;1306;22736;-80
2022/11/12 12:03:58;;;;;;;10.70;4.60;;;;;;;;;;106957;1306;22120;-81
2022/11/12 12:07:03;;;;;;;11.90;5.30;;;;;;;;;;106940;1299;22159;-80
2022/11/12 12:09:52;;;;;;;7.80;3.20;;;;;;;;;;106898;1307;22697;-81
2022/11/12 12:12:51;;;;;;;8.10;3.00;;;;;;;;;;106918;1307;22079;-81
2022/11/12 12:15:44;;;;;;;8.90;2.80;;;;;;;;;;107072;1300;22987;-81
2022/11/12 12:18:32;;;;;;;8.10;2.80;;;;;;;;;;106824;1302;22091;-81
2022/11/12 12:21:18;;;;;;;10.40;3.10;;;;;;;;;;106791;1309;22731;-80
2022/11/12 12:24:09;;;;;;;9.40;3.10;;;;;;;;;;106747;1309;21618;-81
2022/11/12 12:26:58;;;;;;;11.10;3.40;;;;;;;;;;106927;1302;22049;-81
2022/11/12 12:29:54;;;;;;;8.20;2.50;;;;;;;;;;106767;1310;22145;-81
2022/11/12 12:32:48;;;;;;;7.70;2.50;;;;;;;;;;106782;1310;22111;-81
2022/11/12 12:35:43;;;;;;;7.30;2.20;;;;;;;;;;106794;1308;22055;-81
2022/11/12 12:38:54;;;;;;;8.70;3.20;;;;;;;;;;106777;1308;22269;-79
2022/11/12 12:41:52;;;;;;;8.20;2.70;;;;;;;;;;106732;1309;22013;-79
2022/11/12 12:44:59;;;;;;;7.80;3.30;;;;;;;;;;106803;1304;22163;-80
2022/11/12 12:47:45;;;;;;;9.50;3.20;;;;;;;;;;106774;1309;22763;-80
2022/11/12 12:50:31;;;;;;;8.90;3.40;;;;;;;;;;107135;1288;21901;-79
2022/11/12 12:53:25;;;;;;;8.50;3.00;;;;;;;;;;107064;1300;21917;-79
2022/11/12 12:56:14;;;;;;;8.90;2.80;;;;;;;;;;106898;1308;22885;-80
2022/11/12 12:59:02;;;;;;;9.50;3.00;;;;;;;;;;106858;1308;22090;-79
2022/11/12 13:01:59;;;;;;;11.30;3.00;;;;;;;;;;106728;1309;22090;-80
2022/11/12 13:05:04;;;;;;;10.20;3.30;;;;;;;;;;106735;1308;22692;-80
2022/11/12 13:07:50;;;;;;;10.20;3.40;;;;;;;;;;106980;1302;22132;-80
2022/11/12 13:10:40;;;;;;;10.60;4.10;;;;;;;;;;106852;1308;22814;-80
2022/11/12 13:13:27;;;;;;;10.80;3.50;;;;;;;;;;106913;1307;22035;-79
2022/11/12 13:16:34;;;;;;;10.10;3.80;;;;;;;;;;106859;1302;22802;-80
2022/11/12 13:19:27;;;;;;;10.50;3.40;;;;;;;;;;106835;1309;22080;-79
2022/11/12 13:22:19;;;;;;;9.20;3.10;;;;;;;;;;106723;1309;22060;-81
2022/11/12 13:25:08;;;;;;;8.90;3.10;;;;;;;;;;106785;1310;22051;-79
2022/11/12 13:28:03;;;;;;;10.80;3.30;;;;;;;;;;106760;1309;22073;-80
2022/11/12 13:30:55;;;;;;;9.10;3.40;;;;;;;;;;106716;1309;22062;-80
2022/11/12 13:33:41;;;;;;;11.10;3.90;;;;;;;;;;106716;1305;22036;-81
2022/11/12 13:36:28;;;;;;;12.40;5.60;;;;;;;;;;106857;1310;22031;-79
2022/11/12 13:39:15;;;;;;;11.10;3.70;;;;;;;;;;105979;1309;22754;-80
2022/11/12 13:45:25;;;;;;;36.30;11.70;;;;;;;;;;106765;1309;22094;-80
2022/11/12 13:48:23;;;;;;;34.70;14.10;;;;;;;;;;106657;1309;22069;-80
2022/11/12 13:51:29;;;;;;;29.80;13.40;;;;;;;;;;106742;1309;22045;-81
2022/11/12 13:54:23;;;;;;;22.20;11.20;;;;;;;;;;107030;1286;22640;-80
2022/11/12 13:57:13;;;;;;;29.40;13.20;;;;;;;;;;106869;1310;22090;-80
2022/11/12 14:00:17;;;;;;;44.90;20.60;;;;;;;;;;106707;1305;22362;-79
2022/11/12 14:03:04;;;;;;;26.40;11.80;;;;;;;;;;106683;1309;22044;-80
2022/11/12 14:05:49;;;;;;;13.40;6.10;;;;;;;;;;106777;1309;22146;-79
2022/11/12 14:08:44;;;;;;;13.50;4.80;;;;;;;;;;106727;1309;22723;-80
2022/11/12 14:11:40;;;;;;;11.20;6.10;;;;;;;;;;106717;1310;22664;-80
2022/11/12 14:14:39;;;;;;;12.50;5.20;;;;;;;;;;106754;1300;22128;-79
2022/11/12 14:17:32;;;;;;;12.60;4.70;;;;;;;;;;106791;1309;22767;-78
2022/11/12 14:20:25;;;;;;;14.90;5.30;;;;;;;;;;106784;1309;22057;-78
2022/11/12 14:23:13;;;;;;;17.60;7.40;;;;;;;;;;106705;1303;22062;-78
2022/11/12 14:25:59;;;;;;;15.20;7.20;;;;;;;;;;106684;1309;22102;-78
2022/11/12 14:28:44;;;;;;;17.40;7.60;;;;;;;;;;106698;1310;22138;-79
2022/11/12 14:31:30;;;;;;;19.00;6.10;;;;;;;;;;106726;1309;22124;-78
2022/11/12 14:34:20;;;;;;;15.30;6.70;;;;;;;;;;106771;1302;22731;-78
2022/11/12 14:37:07;;;;;;;19.60;7.90;;;;;;;;;;106770;1309;22414;-78
2022/11/12 14:39:54;;;;;;;18.50;7.70;;;;;;;;;;106727;1310;21964;-78
2022/11/12 14:42:40;;;;;;;16.90;8.00;;;;;;;;;;106695;1310;22055;-78
2022/11/12 14:45:26;;;;;;;19.40;8.30;;;;;;;;;;106713;1309;22134;-78
2022/11/12 14:48:12;;;;;;;24.00;9.80;;;;;;;;;;106708;1304;22024;-78
2022/11/12 14:51:03;;;;;;;21.40;8.20;;;;;;;;;;106712;1310;22094;-78
2022/11/12 14:53:53;;;;;;;19.00;8.00;;;;;;;;;;106729;1301;22094;-78
2022/11/12 14:56:41;;;;;;;23.80;8.50;;;;;;;;;;106727;1302;22172;-78
2022/11/12 14:59:28;;;;;;;21.20;7.80;;;;;;;;;;106756;1310;22120;-78
2022/11/12 15:02:16;;;;;;;23.80;9.10;;;;;;;;;;106747;1310;22077;-78
2022/11/12 15:05:10;;;;;;;24.10;10.30;;;;;;;;;;106719;1309;22111;-78
2022/11/12 15:07:56;;;;;;;28.70;12.80;;;;;;;;;;106694;1309;22037;-78
2022/11/12 15:10:43;;;;;;;34.20;17.10;;;;;;;;;;106704;1295;22765;-78
2022/11/12 15:13:36;;;;;;;33.20;15.30;;;;;;;;;;106639;1306;22540;-78
2022/11/12 15:16:25;;;;;;;31.60;13.80;;;;;;;;;;106704;1310;22150;-78
2022/11/12 15:19:23;;;;;;;33.10;15.30;;;;;;;;;;106670;1310;22072;-78
2022/11/12 15:22:19;;;;;;;45.60;21.50;;;;;;;;;;106613;1310;23100;-78
2022/11/12 15:25:32;;;;;;;55.80;21.10;;;;;;;;;;106628;1310;22093;-78
2022/11/12 15:28:24;;;;;;;98.10;29.70;;;;;;;;;;106637;1310;22957;-78
2022/11/12 15:31:20;;;;;;;77.70;23.20;;;;;;;;;;106630;1310;22015;-78
2022/11/12 15:34:36;;;;;;;36.70;12.40;;;;;;;;;;106663;1310;22724;-78
2022/11/12 15:37:25;;;;;;;19.60;7.90;;;;;;;;;;106702;1310;21984;-78
2022/11/12 15:40:17;;;;;;;18.40;6.60;;;;;;;;;;106686;1310;22666;-78
2022/11/12 15:43:10;;;;;;;32.00;10.90;;;;;;;;;;106676;1310;22007;-78
2022/11/12 15:45:57;;;;;;;41.70;16.40;;;;;;;;;;106632;1310;22074;-78
2022/11/12 15:48:44;;;;;;;33.50;13.30;;;;;;;;;;106657;1310;22699;-78
2022/11/12 15:51:30;;;;;;;29.70;12.20;;;;;;;;;;106644;1313;22058;-78
2022/11/12 15:54:19;;;;;;;23.50;10.70;;;;;;;;;;106655;1310;22093;-78
2022/11/12 15:57:08;;;;;;;22.80;10.70;;;;;;;;;;106698;1310;22053;-78
2022/11/12 16:00:06;;;;;;;30.90;11.40;;;;;;;;;;106656;1310;22584;-78
2022/11/12 16:02:58;;;;;;;29.00;11.10;;;;;;;;;;106718;1310;21972;-75
2022/11/12 16:05:45;;;;;;;26.30;11.50;;;;;;;;;;106629;1309;22006;-77
2022/11/12 16:08:33;;;;;;;27.40;11.40;;;;;;;;;;106634;1313;22106;-77
2022/11/12 16:11:37;;;;;;;23.50;10.60;;;;;;;;;;106654;1310;22096;-77
2022/11/12 16:24:12;;;;;;;30.20;13.20;;;;;;;;;;100502;1338;545619;-81
2022/11/12 16:26:59;;;;;;;27.50;12.30;;;;;;;;;;102721;1317;26636;-83
2022/11/12 16:29:45;;;;;;;28.90;12.70;;;;;;;;;;102574;1317;22496;-85
2022/11/12 16:32:30;;;;;;;29.20;13.50;;;;;;;;;;102777;1317;22851;-83
2022/11/12 16:35:16;;;;;;;31.20;13.20;;;;;;;;;;102820;1317;25387;-79
2022/11/12 16:38:02;;;;;;;27.60;12.70;;;;;;;;;;101946;1316;1314813;-84
2022/11/12 16:40:47;;;;;;;29.60;12.60;;;;;;;;;;103151;1310;22467;-81
2022/11/12 16:43:33;;;;;;;32.00;15.20;;;;;;;;;;103389;1295;26447;-81
2022/11/12 16:46:21;;;;;;;51.20;23.90;;;;;;;;;;103301;1293;22486;-82
2022/11/12 16:49:11;;;;;;;64.80;30.50;;;;;;;;;;103363;1296;22585;-82
2022/11/12 16:51:57;;;;;;;55.90;27.90;;;;;;;;;;103286;1296;22420;-81
2022/11/12 16:54:43;;;;;;;56.80;28.50;;;;;;;;;;103132;1288;22483;-80
2022/11/12 16:57:28;;;;;;;60.40;29.10;;;;;;;;;;103207;1289;22512;-80
2022/11/12 17:00:16;;;;;;;59.70;25.40;;;;;;;;;;103227;1286;22476;-81
2022/11/12 17:03:11;;;;;;;51.20;22.50;;;;;;;;;;103142;1295;22505;-83
2022/11/12 17:05:58;;;;;;;46.70;20.80;;;;;;;;;;103174;1287;22599;-82
2022/11/12 17:08:46;;;;;;;48.50;20.60;;;;;;;;;;103201;1310;25350;-84
2022/11/12 17:11:33;;;;;;;46.00;20.40;;;;;;;;;;103304;1296;24167;-81